sensor_id;sensor_type;location;lat;lon;timestamp;P1;durP1;ratioP1;P2;durP2;ratioP2
2289;SDS011;1153;47.986;7.898;2023-07-20T00:02:18;1.60;;;1.17;;
2289;SDS011;1153;47.986;7.898;2023-07-20T00:04:43;3.30;;;1.30;;
2289;SDS011;1153;47.986;7.898;2023-07-20T00:07:09;4.10;;;1.00;;
2289;SDS011;1153;47.986;7.898;2023-07-20T00:09:34;2.23;;;0.80;;
2289;SDS011;1153;47.986;7.898;2023-07-20T00:11:59;1.10;;;0.83;;
2289;SDS011;1153;47.986;7.898;2023-07-20T00:14:25;1.17;;;0.80;;
2289;SDS011;1153;47.986;7.898;2023-07-20T00:16:50;2.20;;;0.93;;
2289;SDS011;1153;47.986;7.898;2023-07-20T00:19:21;11.70;;;1.30;;
2289;SDS011;1153;47.986;7.898;2023-07-20T00:21:46;12.60;;;1.50;;
2289;SDS011;1153;47.986;7.898;2023-07-20T00:24:11;1.37;;;0.97;;
2289;SDS011;1153;47.986;7.898;2023-07-20T00:26:36;2.87;;;1.00;;
2289;SDS011;1153;47.986;7.898;2023-07-20T00:29:01;2.03;;;1.70;;
2289;SDS011;1153;47.986;7.898;2023-07-20T00:31:27;1.67;;;1.10;;
2289;SDS011;1153;47.986;7.898;2023-07-20T00:33:52;5.67;;;1.17;;
2289;SDS011;1153;47.986;7.898;2023-07-20T00:36:17;1.53;;;1.33;;
2289;SDS011;1153;47.986;7.898;2023-07-20T00:38:42;6.33;;;1.10;;
2289;SDS011;1153;47.986;7.898;2023-07-20T00:41:07;7.80;;;1.00;;
2289;SDS011;1153;47.986;7.898;2023-07-20T00:43:33;1.40;;;1.30;;
2289;SDS011;1153;47.986;7.898;2023-07-20T00:45:58;3.80;;;1.00;;
2289;SDS011;1153;47.986;7.898;2023-07-20T00:48:24;1.90;;;0.97;;
2289;SDS011;1153;47.986;7.898;2023-07-20T00:50:49;1.50;;;1.03;;
2289;SDS011;1153;47.986;7.898;2023-07-20T00:53:15;2.93;;;1.10;;
2289;SDS011;1153;47.986;7.898;2023-07-20T00:55:40;2.33;;;1.00;;
2289;SDS011;1153;47.986;7.898;2023-07-20T00:58:05;1.37;;;1.27;;
2289;SDS011;1153;47.986;7.898;2023-07-20T01:00:31;2.77;;;1.37;;
2289;SDS011;1153;47.986;7.898;2023-07-20T01:02:57;1.20;;;1.03;;
2289;SDS011;1153;47.986;7.898;2023-07-20T01:05:23;1.13;;;0.97;;
2289;SDS011;1153;47.986;7.898;2023-07-20T01:07:59;5.13;;;1.47;;
2289;SDS011;1153;47.986;7.898;2023-07-20T01:12:52;3.93;;;1.20;;
2289;SDS011;1153;47.986;7.898;2023-07-20T01:15:18;3.10;;;1.40;;
2289;SDS011;1153;47.986;7.898;2023-07-20T01:17:43;6.10;;;1.27;;
2289;SDS011;1153;47.986;7.898;2023-07-20T01:20:10;1.40;;;0.90;;
2289;SDS011;1153;47.986;7.898;2023-07-20T01:25:22;1.50;;;1.40;;
2289;SDS011;1153;47.986;7.898;2023-07-20T01:33:14;3.77;;;1.10;;
2289;SDS011;1153;47.986;7.898;2023-07-20T01:35:41;1.50;;;1.10;;
2289;SDS011;1153;47.986;7.898;2023-07-20T01:38:06;1.30;;;1.00;;
2289;SDS011;1153;47.986;7.898;2023-07-20T01:40:32;1.80;;;1.23;;
2289;SDS011;1153;47.986;7.898;2023-07-20T01:42:57;3.70;;;1.70;;
2289;SDS011;1153;47.986;7.898;2023-07-20T01:45:22;3.30;;;1.20;;
2289;SDS011;1153;47.986;7.898;2023-07-20T01:47:48;1.33;;;1.23;;
2289;SDS011;1153;47.986;7.898;2023-07-20T01:50:13;1.50;;;1.30;;
2289;SDS011;1153;47.986;7.898;2023-07-20T01:52:38;1.50;;;1.27;;
2289;SDS011;1153;47.986;7.898;2023-07-20T01:55:03;4.30;;;1.47;;
2289;SDS011;1153;47.986;7.898;2023-07-20T01:57:29;1.33;;;1.23;;
2289;SDS011;1153;47.986;7.898;2023-07-20T01:59:54;12.83;;;1.90;;
2289;SDS011;1153;47.986;7.898;2023-07-20T02:02:19;5.63;;;1.60;;
2289;SDS011;1153;47.986;7.898;2023-07-20T02:04:45;4.40;;;1.27;;
2289;SDS011;1153;47.986;7.898;2023-07-20T02:07:10;1.57;;;1.40;;
2289;SDS011;1153;47.986;7.898;2023-07-20T02:09:36;5.77;;;1.40;;
2289;SDS011;1153;47.986;7.898;2023-07-20T02:12:01;1.93;;;0.93;;
2289;SDS011;1153;47.986;7.898;2023-07-20T02:14:27;3.20;;;1.60;;
2289;SDS011;1153;47.986;7.898;2023-07-20T02:16:52;1.63;;;1.50;;
2289;SDS011;1153;47.986;7.898;2023-07-20T02:19:19;2.50;;;1.50;;
2289;SDS011;1153;47.986;7.898;2023-07-20T02:21:44;1.67;;;1.53;;
2289;SDS011;1153;47.986;7.898;2023-07-20T02:24:09;2.50;;;1.10;;
2289;SDS011;1153;47.986;7.898;2023-07-20T02:26:34;2.60;;;1.20;;
2289;SDS011;1153;47.986;7.898;2023-07-20T02:29:00;2.10;;;1.37;;
2289;SDS011;1153;47.986;7.898;2023-07-20T02:31:25;1.67;;;1.53;;
2289;SDS011;1153;47.986;7.898;2023-07-20T02:33:50;1.43;;;1.10;;
2289;SDS011;1153;47.986;7.898;2023-07-20T02:36:15;1.83;;;0.97;;
2289;SDS011;1153;47.986;7.898;2023-07-20T02:38:41;1.40;;;1.30;;
2289;SDS011;1153;47.986;7.898;2023-07-20T02:41:07;1.60;;;1.50;;
2289;SDS011;1153;47.986;7.898;2023-07-20T02:43:32;1.93;;;1.40;;
2289;SDS011;1153;47.986;7.898;2023-07-20T02:45:57;1.53;;;1.43;;
2289;SDS011;1153;47.986;7.898;2023-07-20T02:48:22;1.07;;;0.97;;
2289;SDS011;1153;47.986;7.898;2023-07-20T02:50:47;4.13;;;1.17;;
2289;SDS011;1153;47.986;7.898;2023-07-20T02:53:13;2.17;;;1.77;;
2289;SDS011;1153;47.986;7.898;2023-07-20T02:55:38;1.10;;;1.00;;
2289;SDS011;1153;47.986;7.898;2023-07-20T02:58:03;1.93;;;1.83;;
2289;SDS011;1153;47.986;7.898;2023-07-20T03:00:28;1.83;;;1.17;;
2289;SDS011;1153;47.986;7.898;2023-07-20T03:02:53;2.80;;;1.00;;
2289;SDS011;1153;47.986;7.898;2023-07-20T03:05:20;2.70;;;1.63;;
2289;SDS011;1153;47.986;7.898;2023-07-20T03:07:46;3.47;;;1.80;;
2289;SDS011;1153;47.986;7.898;2023-07-20T03:10:11;2.20;;;1.10;;
2289;SDS011;1153;47.986;7.898;2023-07-20T03:12:36;1.33;;;1.20;;
2289;SDS011;1153;47.986;7.898;2023-07-20T03:15:02;2.83;;;1.43;;
2289;SDS011;1153;47.986;7.898;2023-07-20T03:17:28;2.20;;;1.10;;
2289;SDS011;1153;47.986;7.898;2023-07-20T03:19:53;2.20;;;1.80;;
2289;SDS011;1153;47.986;7.898;2023-07-20T03:22:18;5.17;;;1.30;;
2289;SDS011;1153;47.986;7.898;2023-07-20T03:24:43;2.40;;;1.50;;
2289;SDS011;1153;47.986;7.898;2023-07-20T03:27:08;1.10;;;1.00;;
2289;SDS011;1153;47.986;7.898;2023-07-20T03:29:33;1.60;;;1.30;;
2289;SDS011;1153;47.986;7.898;2023-07-20T03:31:59;2.50;;;1.27;;
2289;SDS011;1153;47.986;7.898;2023-07-20T03:34:24;1.43;;;1.30;;
2289;SDS011;1153;47.986;7.898;2023-07-20T03:36:50;2.70;;;1.20;;
2289;SDS011;1153;47.986;7.898;2023-07-20T03:39:15;2.10;;;1.40;;
2289;SDS011;1153;47.986;7.898;2023-07-20T03:41:40;2.90;;;1.50;;
2289;SDS011;1153;47.986;7.898;2023-07-20T03:44:05;2.40;;;1.67;;
2289;SDS011;1153;47.986;7.898;2023-07-20T03:46:30;2.03;;;1.10;;
2289;SDS011;1153;47.986;7.898;2023-07-20T03:48:56;1.80;;;1.70;;
2289;SDS011;1153;47.986;7.898;2023-07-20T03:51:21;2.60;;;1.27;;
2289;SDS011;1153;47.986;7.898;2023-07-20T03:53:46;3.20;;;1.53;;
2289;SDS011;1153;47.986;7.898;2023-07-20T03:56:11;2.00;;;1.87;;
2289;SDS011;1153;47.986;7.898;2023-07-20T03:58:36;1.50;;;1.40;;
2289;SDS011;1153;47.986;7.898;2023-07-20T04:01:02;1.67;;;1.53;;
2289;SDS011;1153;47.986;7.898;2023-07-20T04:03:27;2.53;;;1.87;;
2289;SDS011;1153;47.986;7.898;2023-07-20T04:05:55;3.30;;;2.30;;
2289;SDS011;1153;47.986;7.898;2023-07-20T04:08:22;1.87;;;1.77;;
2289;SDS011;1153;47.986;7.898;2023-07-20T04:10:47;1.70;;;1.40;;
2289;SDS011;1153;47.986;7.898;2023-07-20T04:13:12;1.40;;;1.30;;
2289;SDS011;1153;47.986;7.898;2023-07-20T04:15:38;2.50;;;1.50;;
2289;SDS011;1153;47.986;7.898;2023-07-20T04:18:03;4.70;;;1.40;;
2289;SDS011;1153;47.986;7.898;2023-07-20T04:20:29;3.20;;;1.50;;
2289;SDS011;1153;47.986;7.898;2023-07-20T04:22:54;1.57;;;1.47;;
2289;SDS011;1153;47.986;7.898;2023-07-20T04:25:19;1.00;;;0.90;;
2289;SDS011;1153;47.986;7.898;2023-07-20T04:27:44;2.80;;;1.57;;
2289;SDS011;1153;47.986;7.898;2023-07-20T04:30:10;3.30;;;1.80;;
2289;SDS011;1153;47.986;7.898;2023-07-20T04:32:36;1.80;;;1.43;;
2289;SDS011;1153;47.986;7.898;2023-07-20T04:35:05;1.10;;;0.93;;
2289;SDS011;1153;47.986;7.898;2023-07-20T04:37:31;1.70;;;1.60;;
2289;SDS011;1153;47.986;7.898;2023-07-20T04:39:56;2.13;;;1.80;;
2289;SDS011;1153;47.986;7.898;2023-07-20T04:42:21;1.57;;;1.47;;
2289;SDS011;1153;47.986;7.898;2023-07-20T04:44:46;1.93;;;1.77;;
2289;SDS011;1153;47.986;7.898;2023-07-20T04:47:12;2.80;;;1.67;;
2289;SDS011;1153;47.986;7.898;2023-07-20T04:49:37;3.10;;;1.93;;
2289;SDS011;1153;47.986;7.898;2023-07-20T04:52:02;3.30;;;2.10;;
2289;SDS011;1153;47.986;7.898;2023-07-20T04:54:28;1.50;;;1.13;;
2289;SDS011;1153;47.986;7.898;2023-07-20T04:56:53;1.23;;;1.13;;
2289;SDS011;1153;47.986;7.898;2023-07-20T04:59:18;1.70;;;1.43;;
2289;SDS011;1153;47.986;7.898;2023-07-20T05:01:44;10.23;;;1.83;;
2289;SDS011;1153;47.986;7.898;2023-07-20T05:04:09;4.93;;;1.87;;
2289;SDS011;1153;47.986;7.898;2023-07-20T05:06:35;2.13;;;1.17;;
2289;SDS011;1153;47.986;7.898;2023-07-20T05:09:00;2.10;;;2.00;;
2289;SDS011;1153;47.986;7.898;2023-07-20T05:11:25;1.47;;;1.33;;
2289;SDS011;1153;47.986;7.898;2023-07-20T05:13:50;1.77;;;1.13;;
2289;SDS011;1153;47.986;7.898;2023-07-20T05:16:15;1.80;;;1.60;;
2289;SDS011;1153;47.986;7.898;2023-07-20T05:18:40;1.97;;;1.27;;
2289;SDS011;1153;47.986;7.898;2023-07-20T05:21:06;2.30;;;1.87;;
2289;SDS011;1153;47.986;7.898;2023-07-20T05:23:31;2.37;;;1.37;;
2289;SDS011;1153;47.986;7.898;2023-07-20T05:25:57;3.27;;;2.97;;
2289;SDS011;1153;47.986;7.898;2023-07-20T05:28:23;2.63;;;1.87;;
2289;SDS011;1153;47.986;7.898;2023-07-20T05:30:48;10.20;;;2.10;;
2289;SDS011;1153;47.986;7.898;2023-07-20T05:33:14;1.60;;;1.50;;
2289;SDS011;1153;47.986;7.898;2023-07-20T05:35:39;3.57;;;3.37;;
2289;SDS011;1153;47.986;7.898;2023-07-20T05:38:04;2.93;;;2.73;;
2289;SDS011;1153;47.986;7.898;2023-07-20T05:40:30;2.07;;;1.87;;
2289;SDS011;1153;47.986;7.898;2023-07-20T05:42:55;4.13;;;1.67;;
2289;SDS011;1153;47.986;7.898;2023-07-20T05:45:22;3.03;;;1.83;;
2289;SDS011;1153;47.986;7.898;2023-07-20T05:47:47;2.17;;;1.43;;
2289;SDS011;1153;47.986;7.898;2023-07-20T05:50:12;3.33;;;2.00;;
2289;SDS011;1153;47.986;7.898;2023-07-20T05:52:37;2.00;;;1.90;;
2289;SDS011;1153;47.986;7.898;2023-07-20T05:55:04;2.63;;;2.43;;
2289;SDS011;1153;47.986;7.898;2023-07-20T05:57:29;3.23;;;2.33;;
2289;SDS011;1153;47.986;7.898;2023-07-20T05:59:54;3.23;;;1.83;;
2289;SDS011;1153;47.986;7.898;2023-07-20T06:02:20;1.57;;;1.47;;
2289;SDS011;1153;47.986;7.898;2023-07-20T06:04:45;2.73;;;2.00;;
2289;SDS011;1153;47.986;7.898;2023-07-20T06:07:10;2.93;;;1.50;;
2289;SDS011;1153;47.986;7.898;2023-07-20T06:09:35;1.77;;;1.40;;
2289;SDS011;1153;47.986;7.898;2023-07-20T06:12:01;2.40;;;1.87;;
2289;SDS011;1153;47.986;7.898;2023-07-20T06:14:26;2.00;;;1.80;;
2289;SDS011;1153;47.986;7.898;2023-07-20T06:16:51;1.93;;;1.40;;
2289;SDS011;1153;47.986;7.898;2023-07-20T06:19:16;1.80;;;1.20;;
2289;SDS011;1153;47.986;7.898;2023-07-20T06:21:43;4.20;;;1.60;;
2289;SDS011;1153;47.986;7.898;2023-07-20T06:24:08;2.23;;;1.93;;
2289;SDS011;1153;47.986;7.898;2023-07-20T06:26:33;2.43;;;1.73;;
2289;SDS011;1153;47.986;7.898;2023-07-20T06:29:04;12.13;;;1.67;;
2289;SDS011;1153;47.986;7.898;2023-07-20T06:31:29;2.00;;;1.90;;
2289;SDS011;1153;47.986;7.898;2023-07-20T06:33:54;5.23;;;1.80;;
2289;SDS011;1153;47.986;7.898;2023-07-20T06:36:19;3.67;;;2.20;;
2289;SDS011;1153;47.986;7.898;2023-07-20T06:38:44;1.77;;;1.67;;
2289;SDS011;1153;47.986;7.898;2023-07-20T06:41:09;8.83;;;1.90;;
2289;SDS011;1153;47.986;7.898;2023-07-20T06:43:35;5.33;;;1.63;;
2289;SDS011;1153;47.986;7.898;2023-07-20T06:46:00;2.93;;;2.20;;
2289;SDS011;1153;47.986;7.898;2023-07-20T06:48:25;1.73;;;1.63;;
2289;SDS011;1153;47.986;7.898;2023-07-20T06:50:51;1.70;;;1.60;;
2289;SDS011;1153;47.986;7.898;2023-07-20T06:53:16;4.33;;;1.80;;
2289;SDS011;1153;47.986;7.898;2023-07-20T06:55:42;6.07;;;2.50;;
2289;SDS011;1153;47.986;7.898;2023-07-20T06:58:07;1.80;;;1.70;;
2289;SDS011;1153;47.986;7.898;2023-07-20T07:00:32;1.60;;;1.30;;
2289;SDS011;1153;47.986;7.898;2023-07-20T07:02:57;1.63;;;1.53;;
2289;SDS011;1153;47.986;7.898;2023-07-20T07:05:23;2.70;;;0.93;;
2289;SDS011;1153;47.986;7.898;2023-07-20T07:07:48;1.80;;;1.70;;
2289;SDS011;1153;47.986;7.898;2023-07-20T07:10:14;1.67;;;1.57;;
2289;SDS011;1153;47.986;7.898;2023-07-20T07:12:39;2.43;;;1.10;;
2289;SDS011;1153;47.986;7.898;2023-07-20T07:15:04;1.83;;;1.73;;
2289;SDS011;1153;47.986;7.898;2023-07-20T07:17:31;2.97;;;1.40;;
2289;SDS011;1153;47.986;7.898;2023-07-20T07:19:57;1.87;;;1.27;;
2289;SDS011;1153;47.986;7.898;2023-07-20T07:22:23;1.87;;;1.30;;
2289;SDS011;1153;47.986;7.898;2023-07-20T07:24:48;2.57;;;1.33;;
2289;SDS011;1153;47.986;7.898;2023-07-20T07:27:13;1.47;;;1.33;;
2289;SDS011;1153;47.986;7.898;2023-07-20T07:29:41;4.03;;;1.63;;
2289;SDS011;1153;47.986;7.898;2023-07-20T07:32:06;1.30;;;1.20;;
2289;SDS011;1153;47.986;7.898;2023-07-20T07:34:31;6.63;;;1.10;;
2289;SDS011;1153;47.986;7.898;2023-07-20T07:36:59;1.70;;;1.60;;
2289;SDS011;1153;47.986;7.898;2023-07-20T07:39:24;1.33;;;1.23;;
2289;SDS011;1153;47.986;7.898;2023-07-20T07:41:49;3.47;;;1.33;;
2289;SDS011;1153;47.986;7.898;2023-07-20T07:44:15;1.27;;;1.17;;
2289;SDS011;1153;47.986;7.898;2023-07-20T07:46:40;1.87;;;1.70;;
2289;SDS011;1153;47.986;7.898;2023-07-20T07:49:06;2.00;;;1.40;;
2289;SDS011;1153;47.986;7.898;2023-07-20T07:51:31;2.13;;;1.30;;
2289;SDS011;1153;47.986;7.898;2023-07-20T07:53:57;2.00;;;1.90;;
2289;SDS011;1153;47.986;7.898;2023-07-20T07:56:22;1.57;;;1.03;;
2289;SDS011;1153;47.986;7.898;2023-07-20T07:58:48;3.20;;;1.67;;
2289;SDS011;1153;47.986;7.898;2023-07-20T08:01:13;1.47;;;1.37;;
2289;SDS011;1153;47.986;7.898;2023-07-20T08:03:38;2.83;;;1.33;;
2289;SDS011;1153;47.986;7.898;2023-07-20T08:06:04;2.30;;;1.13;;
2289;SDS011;1153;47.986;7.898;2023-07-20T08:08:29;1.20;;;1.00;;
2289;SDS011;1153;47.986;7.898;2023-07-20T08:10:54;2.40;;;1.60;;
2289;SDS011;1153;47.986;7.898;2023-07-20T08:13:20;1.37;;;1.27;;
2289;SDS011;1153;47.986;7.898;2023-07-20T08:15:48;3.60;;;1.50;;
2289;SDS011;1153;47.986;7.898;2023-07-20T08:18:13;2.40;;;1.37;;
2289;SDS011;1153;47.986;7.898;2023-07-20T08:20:38;1.63;;;1.37;;
2289;SDS011;1153;47.986;7.898;2023-07-20T08:23:03;1.53;;;0.97;;
2289;SDS011;1153;47.986;7.898;2023-07-20T08:25:29;2.33;;;1.77;;
2289;SDS011;1153;47.986;7.898;2023-07-20T08:27:54;1.60;;;1.00;;
2289;SDS011;1153;47.986;7.898;2023-07-20T08:30:21;2.20;;;1.30;;
2289;SDS011;1153;47.986;7.898;2023-07-20T08:32:46;1.43;;;1.33;;
2289;SDS011;1153;47.986;7.898;2023-07-20T08:35:12;1.03;;;0.80;;
2289;SDS011;1153;47.986;7.898;2023-07-20T08:37:37;1.10;;;0.90;;
2289;SDS011;1153;47.986;7.898;2023-07-20T08:40:02;1.00;;;0.90;;
2289;SDS011;1153;47.986;7.898;2023-07-20T08:42:29;5.13;;;0.70;;
2289;SDS011;1153;47.986;7.898;2023-07-20T08:44:55;4.37;;;1.00;;
2289;SDS011;1153;47.986;7.898;2023-07-20T08:47:21;2.00;;;0.70;;
2289;SDS011;1153;47.986;7.898;2023-07-20T08:49:48;3.73;;;0.80;;
2289;SDS011;1153;47.986;7.898;2023-07-20T08:52:13;3.80;;;0.63;;
2289;SDS011;1153;47.986;7.898;2023-07-20T08:54:38;1.30;;;0.67;;
2289;SDS011;1153;47.986;7.898;2023-07-20T08:57:04;1.93;;;1.27;;
2289;SDS011;1153;47.986;7.898;2023-07-20T08:59:30;1.10;;;0.60;;
2289;SDS011;1153;47.986;7.898;2023-07-20T09:01:58;1.83;;;0.60;;
2289;SDS011;1153;47.986;7.898;2023-07-20T09:04:24;1.00;;;0.60;;
2289;SDS011;1153;47.986;7.898;2023-07-20T09:06:50;2.13;;;0.70;;
2289;SDS011;1153;47.986;7.898;2023-07-20T09:09:15;1.00;;;0.80;;
2289;SDS011;1153;47.986;7.898;2023-07-20T09:11:40;1.73;;;0.50;;
2289;SDS011;1153;47.986;7.898;2023-07-20T09:14:06;0.97;;;0.77;;
2289;SDS011;1153;47.986;7.898;2023-07-20T09:16:31;3.20;;;1.00;;
2289;SDS011;1153;47.986;7.898;2023-07-20T09:19:00;1.30;;;0.80;;
2289;SDS011;1153;47.986;7.898;2023-07-20T09:21:28;1.60;;;0.90;;
2289;SDS011;1153;47.986;7.898;2023-07-20T09:23:53;1.10;;;0.90;;
2289;SDS011;1153;47.986;7.898;2023-07-20T09:26:21;1.93;;;0.80;;
2289;SDS011;1153;47.986;7.898;2023-07-20T09:28:50;1.40;;;1.10;;
2289;SDS011;1153;47.986;7.898;2023-07-20T09:31:16;3.63;;;0.80;;
2289;SDS011;1153;47.986;7.898;2023-07-20T09:33:45;2.80;;;1.00;;
2289;SDS011;1153;47.986;7.898;2023-07-20T09:36:10;2.80;;;1.00;;
2289;SDS011;1153;47.986;7.898;2023-07-20T09:38:39;1.30;;;0.97;;
2289;SDS011;1153;47.986;7.898;2023-07-20T09:41:05;2.80;;;0.93;;
2289;SDS011;1153;47.986;7.898;2023-07-20T09:43:30;2.30;;;1.00;;
2289;SDS011;1153;47.986;7.898;2023-07-20T09:45:57;1.63;;;1.10;;
2289;SDS011;1153;47.986;7.898;2023-07-20T09:48:23;1.43;;;1.10;;
2289;SDS011;1153;47.986;7.898;2023-07-20T09:50:49;1.27;;;1.10;;
2289;SDS011;1153;47.986;7.898;2023-07-20T09:53:16;0.97;;;0.67;;
2289;SDS011;1153;47.986;7.898;2023-07-20T09:55:43;9.60;;;0.80;;
2289;SDS011;1153;47.986;7.898;2023-07-20T09:58:09;1.10;;;0.70;;
2289;SDS011;1153;47.986;7.898;2023-07-20T10:00:35;1.00;;;0.73;;
2289;SDS011;1153;47.986;7.898;2023-07-20T10:03:01;1.40;;;1.00;;
2289;SDS011;1153;47.986;7.898;2023-07-20T10:05:28;2.20;;;1.30;;
2289;SDS011;1153;47.986;7.898;2023-07-20T10:07:56;1.43;;;1.10;;
2289;SDS011;1153;47.986;7.898;2023-07-20T10:10:21;1.00;;;0.90;;
2289;SDS011;1153;47.986;7.898;2023-07-20T10:12:48;0.97;;;0.60;;
2289;SDS011;1153;47.986;7.898;2023-07-20T10:15:20;1.10;;;0.70;;
2289;SDS011;1153;47.986;7.898;2023-07-20T10:20:31;1.30;;;0.70;;
2289;SDS011;1153;47.986;7.898;2023-07-20T10:22:56;1.40;;;0.90;;
2289;SDS011;1153;47.986;7.898;2023-07-20T10:25:22;1.00;;;0.70;;
2289;SDS011;1153;47.986;7.898;2023-07-20T10:27:47;1.63;;;0.87;;
2289;SDS011;1153;47.986;7.898;2023-07-20T10:30:13;0.97;;;0.70;;
2289;SDS011;1153;47.986;7.898;2023-07-20T10:32:39;1.10;;;0.80;;
2289;SDS011;1153;47.986;7.898;2023-07-20T10:35:11;1.70;;;0.67;;
2289;SDS011;1153;47.986;7.898;2023-07-20T10:37:53;1.40;;;0.70;;
2289;SDS011;1153;47.986;7.898;2023-07-20T10:40:34;1.20;;;1.10;;
2289;SDS011;1153;47.986;7.898;2023-07-20T10:43:06;5.03;;;1.10;;
2289;SDS011;1153;47.986;7.898;2023-07-20T10:45:34;3.60;;;0.67;;
2289;SDS011;1153;47.986;7.898;2023-07-20T10:48:02;1.03;;;0.90;;
2289;SDS011;1153;47.986;7.898;2023-07-20T10:50:28;2.10;;;1.00;;
2289;SDS011;1153;47.986;7.898;2023-07-20T10:53:10;1.43;;;0.60;;
2289;SDS011;1153;47.986;7.898;2023-07-20T10:55:35;1.07;;;0.60;;
2289;SDS011;1153;47.986;7.898;2023-07-20T10:58:07;2.93;;;0.50;;
2289;SDS011;1153;47.986;7.898;2023-07-20T11:00:33;1.03;;;0.60;;
2289;SDS011;1153;47.986;7.898;2023-07-20T11:02:59;1.90;;;0.93;;
2289;SDS011;1153;47.986;7.898;2023-07-20T11:08:05;3.13;;;0.70;;
2289;SDS011;1153;47.986;7.898;2023-07-20T11:10:31;1.10;;;0.60;;
2289;SDS011;1153;47.986;7.898;2023-07-20T11:15:47;3.60;;;0.80;;
2289;SDS011;1153;47.986;7.898;2023-07-20T11:18:12;1.20;;;0.70;;
2289;SDS011;1153;47.986;7.898;2023-07-20T11:20:38;1.43;;;0.90;;
2289;SDS011;1153;47.986;7.898;2023-07-20T11:23:03;1.20;;;0.70;;
2289;SDS011;1153;47.986;7.898;2023-07-20T11:25:35;2.50;;;0.70;;
2289;SDS011;1153;47.986;7.898;2023-07-20T11:28:01;5.60;;;0.80;;
2289;SDS011;1153;47.986;7.898;2023-07-20T11:30:26;1.10;;;0.60;;
2289;SDS011;1153;47.986;7.898;2023-07-20T11:32:51;0.83;;;0.70;;
2289;SDS011;1153;47.986;7.898;2023-07-20T11:35:16;2.10;;;1.03;;
2289;SDS011;1153;47.986;7.898;2023-07-20T11:37:41;1.77;;;0.73;;
2289;SDS011;1153;47.986;7.898;2023-07-20T11:40:07;1.30;;;0.70;;
2289;SDS011;1153;47.986;7.898;2023-07-20T11:42:34;2.70;;;1.00;;
2289;SDS011;1153;47.986;7.898;2023-07-20T11:44:59;1.90;;;0.80;;
2289;SDS011;1153;47.986;7.898;2023-07-20T11:47:29;1.20;;;0.93;;
2289;SDS011;1153;47.986;7.898;2023-07-20T11:49:54;1.00;;;0.77;;
2289;SDS011;1153;47.986;7.898;2023-07-20T11:52:19;1.30;;;1.20;;
2289;SDS011;1153;47.986;7.898;2023-07-20T11:54:44;1.10;;;0.77;;
2289;SDS011;1153;47.986;7.898;2023-07-20T11:57:16;1.20;;;0.93;;
2289;SDS011;1153;47.986;7.898;2023-07-20T11:59:52;0.87;;;0.80;;
2289;SDS011;1153;47.986;7.898;2023-07-20T12:02:17;3.50;;;0.70;;
2289;SDS011;1153;47.986;7.898;2023-07-20T12:04:42;1.10;;;0.70;;
2289;SDS011;1153;47.986;7.898;2023-07-20T12:07:08;2.60;;;0.73;;
2289;SDS011;1153;47.986;7.898;2023-07-20T12:09:33;1.70;;;0.77;;
2289;SDS011;1153;47.986;7.898;2023-07-20T12:11:58;1.30;;;0.70;;
2289;SDS011;1153;47.986;7.898;2023-07-20T12:14:25;1.93;;;0.60;;
2289;SDS011;1153;47.986;7.898;2023-07-20T12:16:53;1.20;;;0.80;;
2289;SDS011;1153;47.986;7.898;2023-07-20T12:19:24;1.00;;;0.80;;
2289;SDS011;1153;47.986;7.898;2023-07-20T12:21:50;3.27;;;1.30;;
2289;SDS011;1153;47.986;7.898;2023-07-20T12:24:15;2.13;;;0.90;;
2289;SDS011;1153;47.986;7.898;2023-07-20T12:26:42;1.10;;;0.57;;
2289;SDS011;1153;47.986;7.898;2023-07-20T12:29:08;1.47;;;0.80;;
2289;SDS011;1153;47.986;7.898;2023-07-20T12:31:33;0.93;;;0.60;;
2289;SDS011;1153;47.986;7.898;2023-07-20T12:33:59;1.80;;;0.80;;
2289;SDS011;1153;47.986;7.898;2023-07-20T12:36:24;3.10;;;0.87;;
2289;SDS011;1153;47.986;7.898;2023-07-20T12:38:49;1.80;;;1.03;;
2289;SDS011;1153;47.986;7.898;2023-07-20T12:41:15;2.70;;;0.93;;
2289;SDS011;1153;47.986;7.898;2023-07-20T12:43:43;0.80;;;0.70;;
2289;SDS011;1153;47.986;7.898;2023-07-20T12:46:09;2.33;;;0.80;;
2289;SDS011;1153;47.986;7.898;2023-07-20T12:48:35;3.10;;;0.60;;
2289;SDS011;1153;47.986;7.898;2023-07-20T12:51:02;1.20;;;0.70;;
2289;SDS011;1153;47.986;7.898;2023-07-20T12:53:28;4.30;;;1.00;;
2289;SDS011;1153;47.986;7.898;2023-07-20T12:55:53;1.43;;;0.60;;
2289;SDS011;1153;47.986;7.898;2023-07-20T12:58:18;1.47;;;0.60;;
2289;SDS011;1153;47.986;7.898;2023-07-20T13:00:43;1.20;;;0.77;;
2289;SDS011;1153;47.986;7.898;2023-07-20T13:03:08;2.50;;;1.10;;
2289;SDS011;1153;47.986;7.898;2023-07-20T13:05:34;2.00;;;0.70;;
2289;SDS011;1153;47.986;7.898;2023-07-20T13:08:00;0.90;;;0.60;;
2289;SDS011;1153;47.986;7.898;2023-07-20T13:10:26;1.50;;;0.67;;
2289;SDS011;1153;47.986;7.898;2023-07-20T13:12:51;1.20;;;0.90;;
2289;SDS011;1153;47.986;7.898;2023-07-20T13:15:17;0.93;;;0.70;;
2289;SDS011;1153;47.986;7.898;2023-07-20T13:17:42;1.40;;;1.30;;
2289;SDS011;1153;47.986;7.898;2023-07-20T13:20:08;3.03;;;0.70;;
2289;SDS011;1153;47.986;7.898;2023-07-20T13:22:36;0.80;;;0.60;;
2289;SDS011;1153;47.986;7.898;2023-07-20T13:25:02;1.73;;;0.57;;
2289;SDS011;1153;47.986;7.898;2023-07-20T13:27:27;1.33;;;0.70;;
2289;SDS011;1153;47.986;7.898;2023-07-20T13:29:52;2.10;;;0.90;;
2289;SDS011;1153;47.986;7.898;2023-07-20T13:32:18;2.70;;;0.67;;
2289;SDS011;1153;47.986;7.898;2023-07-20T13:34:43;1.10;;;1.00;;
2289;SDS011;1153;47.986;7.898;2023-07-20T13:37:08;1.00;;;0.60;;
2289;SDS011;1153;47.986;7.898;2023-07-20T13:39:34;1.00;;;0.80;;
2289;SDS011;1153;47.986;7.898;2023-07-20T13:41:59;8.07;;;1.50;;
2289;SDS011;1153;47.986;7.898;2023-07-20T13:44:26;1.17;;;0.83;;
2289;SDS011;1153;47.986;7.898;2023-07-20T13:46:51;2.50;;;0.80;;
2289;SDS011;1153;47.986;7.898;2023-07-20T13:49:17;1.97;;;1.00;;
2289;SDS011;1153;47.986;7.898;2023-07-20T13:51:42;1.10;;;0.70;;
2289;SDS011;1153;47.986;7.898;2023-07-20T13:54:07;1.10;;;0.60;;
2289;SDS011;1153;47.986;7.898;2023-07-20T13:56:33;0.97;;;0.80;;
2289;SDS011;1153;47.986;7.898;2023-07-20T13:58:58;2.10;;;0.80;;
2289;SDS011;1153;47.986;7.898;2023-07-20T14:01:23;1.90;;;0.73;;
2289;SDS011;1153;47.986;7.898;2023-07-20T14:03:50;1.20;;;0.80;;
2289;SDS011;1153;47.986;7.898;2023-07-20T14:06:15;1.93;;;0.70;;
2289;SDS011;1153;47.986;7.898;2023-07-20T14:08:41;2.07;;;0.90;;
2289;SDS011;1153;47.986;7.898;2023-07-20T14:11:06;1.10;;;0.60;;
2289;SDS011;1153;47.986;7.898;2023-07-20T14:13:31;1.20;;;0.77;;
2289;SDS011;1153;47.986;7.898;2023-07-20T14:15:57;1.10;;;0.70;;
2289;SDS011;1153;47.986;7.898;2023-07-20T14:18:22;2.20;;;0.50;;
2289;SDS011;1153;47.986;7.898;2023-07-20T14:20:47;1.20;;;0.90;;
2289;SDS011;1153;47.986;7.898;2023-07-20T14:23:12;1.23;;;0.80;;
2289;SDS011;1153;47.986;7.898;2023-07-20T14:25:38;1.00;;;0.77;;
2289;SDS011;1153;47.986;7.898;2023-07-20T14:28:03;2.73;;;0.80;;
2289;SDS011;1153;47.986;7.898;2023-07-20T14:30:28;1.10;;;0.73;;
2289;SDS011;1153;47.986;7.898;2023-07-20T14:32:53;9.17;;;0.70;;
2289;SDS011;1153;47.986;7.898;2023-07-20T14:35:18;1.23;;;0.87;;
2289;SDS011;1153;47.986;7.898;2023-07-20T14:37:44;0.90;;;0.60;;
2289;SDS011;1153;47.986;7.898;2023-07-20T14:40:12;1.10;;;0.87;;
2289;SDS011;1153;47.986;7.898;2023-07-20T14:42:37;1.00;;;0.80;;
2289;SDS011;1153;47.986;7.898;2023-07-20T14:45:03;1.83;;;0.70;;
2289;SDS011;1153;47.986;7.898;2023-07-20T14:47:28;1.30;;;0.70;;
2289;SDS011;1153;47.986;7.898;2023-07-20T14:49:57;0.90;;;0.70;;
2289;SDS011;1153;47.986;7.898;2023-07-20T14:52:22;0.80;;;0.60;;
2289;SDS011;1153;47.986;7.898;2023-07-20T14:54:47;2.27;;;0.87;;
2289;SDS011;1153;47.986;7.898;2023-07-20T14:57:12;1.23;;;0.73;;
2289;SDS011;1153;47.986;7.898;2023-07-20T14:59:41;2.53;;;0.60;;
2289;SDS011;1153;47.986;7.898;2023-07-20T15:02:09;1.77;;;0.93;;
2289;SDS011;1153;47.986;7.898;2023-07-20T15:04:34;1.30;;;0.70;;
2289;SDS011;1153;47.986;7.898;2023-07-20T15:07:00;0.80;;;0.60;;
2289;SDS011;1153;47.986;7.898;2023-07-20T15:09:25;1.13;;;0.73;;
2289;SDS011;1153;47.986;7.898;2023-07-20T15:11:50;1.10;;;0.80;;
2289;SDS011;1153;47.986;7.898;2023-07-20T15:14:15;1.20;;;0.73;;
2289;SDS011;1153;47.986;7.898;2023-07-20T15:16:40;1.50;;;0.80;;
2289;SDS011;1153;47.986;7.898;2023-07-20T15:19:08;1.17;;;0.70;;
2289;SDS011;1153;47.986;7.898;2023-07-20T15:21:34;0.70;;;0.60;;
2289;SDS011;1153;47.986;7.898;2023-07-20T15:23:59;0.80;;;0.60;;
2289;SDS011;1153;47.986;7.898;2023-07-20T15:26:24;0.97;;;0.70;;